createdAt,value
2019-06-01T02:52:17.542Z,11.87
2019-06-01T02:57:22.593Z,11.07
2019-06-01T03:02:27.442Z,10.87
2019-06-01T03:07:33.454Z,12.37
2019-06-01T03:12:46.212Z,11.63
2019-06-01T03:17:53.926Z,13.33
2019-06-01T03:22:59.647Z,14.50
2019-06-01T03:28:04.785Z,13.73
2019-06-01T03:33:10.658Z,12.70
2019-06-01T03:38:15.855Z,12.47
2019-06-01T03:43:21.930Z,14.00
2019-06-01T03:48:26.855Z,16.30
2019-06-01T03:53:31.871Z,17.30
2019-06-01T03:58:36.713Z,16.17
2019-06-01T04:03:41.592Z,14.47
2019-06-01T04:08:46.434Z,13.23
2019-06-01T04:13:51.280Z,12.63
2019-06-01T04:18:56.480Z,12.73
2019-06-01T04:24:01.861Z,9.53
2019-06-01T04:29:08.240Z,10.70
2019-06-01T04:34:13.364Z,11.23
2019-06-01T04:39:18.287Z,10.97
2019-06-01T04:44:23.493Z,12.50
2019-06-01T04:49:28.513Z,12.27
2019-06-01T04:54:33.278Z,13.97
2019-06-01T04:59:38.256Z,13.83
2019-06-01T05:04:43.726Z,13.73
2019-06-01T05:09:48.632Z,15.73
2019-06-01T05:14:53.491Z,15.90
2019-06-01T05:19:58.336Z,17.13
2019-06-01T05:25:03.622Z,18.37
2019-06-01T05:30:09.464Z,17.50
2019-06-01T05:35:16.095Z,17.37
2019-06-01T05:40:20.929Z,13.30
2019-06-01T05:45:26.124Z,10.83
2019-06-01T05:50:30.967Z,10.57
2019-06-01T05:55:35.808Z,10.17
2019-06-01T06:00:42.860Z,9.43
2019-06-01T06:05:47.712Z,10.30
2019-06-01T06:10:52.506Z,10.67
2019-06-01T06:15:57.269Z,9.43
2019-06-01T06:21:02.119Z,10.73
2019-06-01T06:26:06.951Z,9.90
2019-06-01T06:31:12.861Z,14.20
2019-06-01T06:36:17.832Z,10.30
2019-06-01T06:41:22.812Z,12.27
2019-06-01T06:46:27.737Z,9.17
2019-06-01T06:51:32.496Z,8.20
2019-06-01T06:56:37.351Z,9.23
2019-06-01T07:01:42.304Z,10.93
2019-06-01T07:06:47.158Z,9.47
2019-06-01T07:11:52.119Z,9.37
2019-06-01T07:16:56.950Z,11.10
2019-06-01T07:22:01.813Z,10.30
2019-06-01T07:27:06.656Z,9.47
2019-06-01T07:32:11.673Z,11.80
2019-06-01T07:37:16.581Z,11.03
2019-06-01T07:42:24.423Z,10.90
2019-06-01T07:47:29.069Z,10.83
2019-06-01T07:52:34.388Z,11.30
2019-06-01T07:57:42.926Z,11.50
2019-06-01T08:02:45.723Z,10.77
2019-06-01T08:07:50.575Z,11.87
2019-06-01T08:12:55.502Z,13.77
2019-06-01T08:18:00.525Z,11.47
2019-06-01T08:23:05.420Z,12.03
2019-06-01T08:28:10.207Z,15.80
2019-06-01T08:33:15.200Z,14.07
2019-06-01T08:38:20.088Z,12.97
2019-06-01T08:43:27.512Z,14.70
2019-06-01T08:48:33.933Z,15.43
2019-06-01T08:53:39.197Z,14.33
2019-06-01T08:58:44.047Z,15.80
2019-06-01T09:03:48.894Z,15.67
2019-06-01T09:08:53.661Z,14.70
2019-06-01T09:13:58.511Z,14.73
2019-06-01T09:19:05.034Z,13.70
2019-06-01T09:24:09.899Z,13.60
2019-06-01T09:29:14.734Z,12.23
2019-06-01T09:34:19.571Z,13.27
2019-06-01T09:39:24.408Z,11.70
2019-06-01T09:44:29.245Z,11.27
2019-06-01T09:49:34.174Z,10.80
2019-06-01T09:54:39.022Z,10.47
2019-06-01T09:59:43.888Z,9.60
2019-06-01T10:04:48.757Z,10.23
2019-06-01T10:09:53.526Z,8.77
2019-06-01T10:14:58.706Z,9.50
2019-06-01T10:20:05.274Z,9.03
2019-06-01T10:25:10.210Z,7.17
2019-06-01T10:30:16.598Z,7.97
2019-06-01T10:35:21.593Z,7.50
2019-06-01T10:40:26.499Z,6.67
2019-06-01T10:45:31.782Z,8.50
2019-06-01T10:50:38.260Z,9.00
2019-06-01T10:55:46.151Z,7.77
2019-06-01T11:00:51.495Z,6.87
2019-06-01T11:05:56.850Z,6.97
2019-06-01T11:11:01.787Z,5.80
2019-06-01T11:16:06.629Z,6.07
2019-06-01T11:21:11.548Z,6.97
2019-06-01T11:26:16.770Z,6.45
2019-06-01T11:31:21.610Z,6.05
2019-06-01T11:36:26.455Z,5.60
2019-06-01T11:41:31.295Z,6.10
2019-06-01T11:46:36.733Z,5.70
2019-06-01T11:51:43.348Z,5.45
2019-06-01T11:56:48.308Z,5.70
2019-06-01T12:01:53.141Z,6.45
2019-06-01T12:07:15.780Z,6.33
2019-06-01T12:12:04.559Z,6.45
2019-06-01T12:17:09.407Z,5.78
2019-06-01T12:22:14.249Z,6.00
2019-06-01T12:27:19.086Z,4.47
2019-06-01T12:32:23.943Z,5.25
2019-06-01T12:37:45.454Z,5.15
2019-06-01T12:42:35.086Z,5.53
2019-06-01T12:47:39.974Z,5.28
2019-06-01T12:52:44.794Z,5.15
2019-06-01T12:57:49.643Z,4.60
2019-06-01T13:03:06.037Z,5.00
2019-06-01T13:08:02.898Z,4.75
2019-06-01T13:13:07.388Z,4.95
2019-06-01T13:18:12.234Z,4.65
2019-06-01T13:23:16.992Z,4.80
2019-06-01T13:28:37.289Z,4.45
2019-06-01T13:33:28.272Z,8.95
2019-06-01T13:38:33.106Z,5.17
2019-06-01T13:43:38.113Z,4.03
2019-06-01T13:48:43.574Z,5.85
2019-06-01T13:53:48.535Z,5.17
2019-06-01T13:58:54.395Z,4.30
2019-06-01T14:03:59.459Z,5.62
2019-06-01T14:09:06.870Z,4.33
2019-06-01T14:14:11.629Z,4.58
2019-06-01T14:19:16.390Z,3.72
2019-06-01T14:24:21.216Z,6.08
2019-06-01T14:29:26.063Z,4.72
2019-06-01T14:34:30.908Z,4.22
2019-06-01T14:39:35.733Z,3.67
2019-06-01T14:44:40.660Z,5.65
2019-06-01T14:49:45.507Z,4.42
2019-06-01T14:54:51.676Z,4.65
2019-06-01T14:59:56.764Z,4.55
2019-06-01T15:05:01.518Z,3.42
2019-06-01T15:10:09.514Z,2.50
2019-06-01T15:15:14.456Z,3.12
2019-06-01T15:20:19.595Z,3.10
2019-06-01T15:25:24.815Z,3.02
2019-06-01T15:30:29.652Z,3.10
2019-06-01T15:35:34.487Z,3.10
2019-06-01T15:40:39.348Z,2.60
2019-06-01T15:45:44.163Z,2.80
2019-06-01T15:50:49.648Z,3.22
2019-06-01T15:55:54.611Z,3.33
2019-06-01T16:00:59.396Z,3.05
2019-06-01T16:06:04.628Z,3.67
2019-06-01T16:11:09.472Z,2.90
2019-06-01T16:16:14.315Z,3.35
2019-06-01T16:21:19.275Z,3.37
2019-06-01T16:26:24.100Z,3.22
2019-06-01T16:31:28.951Z,2.90
2019-06-01T16:36:33.726Z,2.98
2019-06-01T16:41:38.571Z,3.30
2019-06-01T16:46:43.410Z,3.45
2019-06-01T16:51:56.423Z,3.03
2019-06-01T16:57:02.641Z,3.13
2019-06-01T17:02:08.431Z,2.90
2019-06-01T17:07:13.564Z,3.05
2019-06-01T17:12:18.657Z,5.07
2019-06-01T17:17:23.553Z,3.20
2019-06-01T17:22:28.381Z,3.60
2019-06-01T17:27:33.214Z,3.20
2019-06-01T17:32:37.983Z,3.57
2019-06-01T17:37:42.812Z,3.97
2019-06-01T17:42:47.654Z,3.27
2019-06-01T17:47:52.491Z,3.67
2019-06-01T17:52:57.610Z,3.17
2019-06-01T17:58:03.509Z,3.93
2019-06-01T18:03:09.867Z,4.50
2019-06-01T18:08:15.234Z,4.97
2019-06-01T18:13:20.040Z,5.90
2019-06-01T18:18:24.947Z,5.90
2019-06-01T18:23:29.784Z,6.17
2019-06-01T18:28:34.624Z,4.70
2019-06-01T18:33:39.466Z,5.10
2019-06-01T18:38:44.299Z,6.10
2019-06-01T18:43:49.158Z,6.80
2019-06-01T18:48:53.976Z,6.87
2019-06-01T18:53:59.085Z,6.83
2019-06-01T18:59:05.008Z,7.37
2019-06-01T19:04:11.456Z,8.83
2019-06-01T19:09:16.675Z,8.10
2019-06-01T19:14:21.508Z,7.70
2019-06-01T19:19:26.336Z,8.17
2019-06-01T19:24:31.057Z,9.47
2019-06-01T19:29:35.951Z,12.13
2019-06-01T19:34:40.916Z,23.90
2019-06-01T19:39:47.060Z,69.83
2019-06-01T19:44:51.907Z,63.23
2019-06-01T19:49:56.744Z,64.60
2019-06-01T19:55:01.629Z,35.13
2019-06-01T20:00:07.940Z,54.67
2019-06-01T20:05:13.046Z,71.17
2019-06-01T20:10:18.528Z,29.37
2019-06-01T20:15:23.781Z,26.67
2019-06-01T20:20:28.632Z,76.77
2019-06-01T20:25:33.517Z,97.83
2019-06-01T20:30:38.355Z,87.97
2019-06-01T20:35:43.208Z,47.60
2019-06-01T20:40:48.397Z,81.30
2019-06-01T20:45:56.673Z,45.77
2019-06-01T20:50:59.641Z,65.67
2019-06-01T20:56:04.519Z,50.73
2019-06-01T21:01:09.373Z,112.40
2019-06-01T21:06:14.221Z,21.37
2019-06-01T21:11:20.023Z,21.90
2019-06-01T21:16:24.984Z,20.43
2019-06-01T21:21:29.956Z,16.27
2019-06-01T21:26:34.998Z,18.87
2019-06-01T21:31:39.830Z,18.87
2019-06-01T21:36:44.667Z,18.23
2019-06-01T21:41:51.831Z,18.80
2019-06-01T21:46:56.697Z,22.07
2019-06-01T21:52:01.529Z,15.80
2019-06-01T21:57:06.363Z,15.37
2019-06-01T22:02:11.201Z,13.80
2019-06-01T22:07:17.253Z,12.83
2019-06-01T22:12:23.522Z,12.40
2019-06-01T22:17:28.462Z,11.73
2019-06-01T22:22:33.311Z,11.20
2019-06-01T22:27:38.095Z,11.33
2019-06-01T22:32:42.935Z,10.03
2019-06-01T22:37:47.867Z,10.43
2019-06-01T22:42:52.703Z,9.30
2019-06-01T22:47:57.542Z,10.20
2019-06-01T22:53:02.377Z,10.33
2019-06-01T22:58:07.287Z,11.90
2019-06-01T23:03:12.072Z,11.27
2019-06-01T23:08:16.917Z,11.37
2019-06-01T23:13:21.680Z,13.67
2019-06-01T23:18:27.839Z,13.23
2019-06-01T23:23:32.987Z,12.50
2019-06-01T23:28:38.793Z,15.40
2019-06-01T23:33:43.766Z,13.77
2019-06-01T23:38:48.907Z,12.47
2019-06-01T23:44:10.442Z,11.63
2019-06-01T23:49:00.208Z,12.27
2019-06-01T23:54:05.173Z,12.10
2019-06-01T23:59:10.292Z,13.77
